createdAt,value
2019-04-11T00:01:02.072Z,100812.00
2019-04-11T00:03:31.551Z,100813.00
2019-04-11T00:06:01.378Z,100804.00
2019-04-11T00:08:32.112Z,100802.00
2019-04-11T00:11:01.851Z,100807.00
2019-04-11T00:13:33.417Z,100811.00
2019-04-11T00:16:02.779Z,100807.00
2019-04-11T00:18:32.460Z,100809.00
2019-04-11T00:21:02.085Z,100814.00
2019-04-11T00:23:32.371Z,100814.00
2019-04-11T00:26:02.183Z,100816.00
2019-04-11T00:28:31.963Z,100811.00
2019-04-11T00:31:01.587Z,100814.00
2019-04-11T00:33:31.990Z,100814.00
2019-04-11T00:36:01.599Z,100819.00
2019-04-11T00:38:32.030Z,100818.00
2019-04-11T00:41:01.673Z,100806.00
2019-04-11T00:43:36.948Z,100817.00
2019-04-11T00:46:02.988Z,100822.00
2019-04-11T00:48:33.486Z,100811.00
2019-04-11T00:51:03.533Z,100814.00
2019-04-11T00:53:34.049Z,100820.00
2019-04-11T00:56:04.107Z,100820.00
2019-04-11T00:58:33.926Z,100816.00
2019-04-11T01:01:03.815Z,100825.00
2019-04-11T01:03:33.913Z,100822.00
2019-04-11T01:06:03.714Z,100820.00
2019-04-11T01:08:33.219Z,100826.00
2019-04-11T01:11:03.611Z,100819.00
2019-04-11T01:13:42.572Z,100830.00
2019-04-11T01:16:07.100Z,100823.00
2019-04-11T01:18:36.624Z,100828.00
2019-04-11T01:21:06.256Z,100836.00
2019-04-11T01:23:35.815Z,100837.00
2019-04-11T01:26:05.360Z,100826.00
2019-04-11T01:28:34.806Z,100830.00
2019-04-11T01:31:09.380Z,100824.00
2019-04-11T01:33:40.079Z,100829.00
2019-04-11T01:36:11.208Z,100835.00
2019-04-11T01:38:46.326Z,100835.00
2019-04-11T01:41:15.845Z,100834.00
2019-04-11T01:43:55.228Z,100828.00
2019-04-11T01:46:16.493Z,100829.00
2019-04-11T01:51:40.268Z,100831.00
2019-04-11T01:54:09.714Z,100824.00
2019-04-11T01:56:39.228Z,100829.00
2019-04-11T01:59:08.651Z,100836.00
2019-04-11T02:01:56.922Z,100837.00
2019-04-11T02:04:34.190Z,100838.00
2019-04-11T02:07:04.611Z,100839.00
2019-04-11T02:09:34.059Z,100835.00
2019-04-11T02:12:03.725Z,100844.00
2019-04-11T02:14:33.420Z,100850.00
2019-04-11T02:17:02.979Z,100847.00
2019-04-11T02:19:32.444Z,100844.00
2019-04-11T02:22:12.519Z,100851.00
2019-04-11T02:24:50.233Z,100845.00
2019-04-11T02:27:21.277Z,100847.00
2019-04-11T02:29:50.970Z,100844.00
2019-04-11T02:32:24.609Z,100853.00
2019-04-11T02:34:58.418Z,100857.00
2019-04-11T02:37:25.703Z,100849.00
2019-04-11T02:39:56.030Z,100861.00
2019-04-11T02:42:27.714Z,100860.00
2019-04-11T02:45:13.164Z,100859.00
2019-04-11T02:47:32.660Z,100865.00
2019-04-11T02:50:00.072Z,100866.00
2019-04-11T02:52:31.119Z,100870.00
2019-04-11T02:55:01.127Z,100876.00
2019-04-11T02:57:32.245Z,100888.00
2019-04-11T03:00:04.248Z,100894.00
2019-04-11T03:02:34.710Z,100880.00
2019-04-11T03:05:06.963Z,100883.00
2019-04-11T03:07:37.953Z,100872.00
2019-04-11T03:10:09.894Z,100882.00
2019-04-11T03:12:40.499Z,100887.00
2019-04-11T03:15:27.446Z,100878.00
2019-04-11T03:17:45.608Z,100888.00
2019-04-11T03:20:25.850Z,100884.00
2019-04-11T03:22:51.154Z,100888.00
2019-04-11T03:25:17.747Z,100890.00
2019-04-11T03:27:49.276Z,100886.00
2019-04-11T03:30:24.834Z,100883.00
2019-04-11T03:38:19.504Z,100895.00
2019-04-11T03:40:43.905Z,100905.00
2019-04-11T03:43:10.709Z,100897.00
2019-04-11T03:45:48.097Z,100898.00
2019-04-11T03:48:15.557Z,100905.00
2019-04-11T03:50:34.325Z,100908.00
2019-04-11T03:53:06.406Z,100910.00
2019-04-11T03:55:36.916Z,100908.00
2019-04-11T03:58:08.497Z,100913.00
2019-04-11T04:00:43.111Z,100905.00
2019-04-11T04:03:11.370Z,100911.00
2019-04-11T04:05:44.321Z,100910.00
2019-04-11T04:08:14.000Z,100913.00
2019-04-11T04:11:01.876Z,100912.00
2019-04-11T04:13:32.120Z,100911.00
2019-04-11T04:16:22.000Z,100911.00
2019-04-11T04:19:03.611Z,100921.00
2019-04-11T04:21:38.759Z,100925.00
2019-04-11T04:24:34.105Z,100920.00
2019-04-11T04:27:01.850Z,100929.00
2019-04-11T04:29:32.422Z,100937.00
2019-04-11T04:32:03.521Z,100931.00
2019-04-11T04:34:35.967Z,100936.00
2019-04-11T04:37:06.309Z,100938.00
2019-04-11T04:39:37.714Z,100932.00
2019-04-11T04:42:19.387Z,100944.00
2019-04-11T04:44:42.337Z,100945.00
2019-04-11T04:47:21.091Z,100947.00
2019-04-11T04:49:43.703Z,100940.00
2019-04-11T04:52:14.408Z,100949.00
2019-04-11T04:54:44.473Z,100950.00
2019-04-11T04:57:15.548Z,100955.00
2019-04-11T04:59:46.816Z,100956.00
2019-04-11T05:02:17.820Z,100954.00
2019-04-11T05:04:47.961Z,100955.00
2019-04-11T05:07:17.495Z,100960.00
2019-04-11T05:09:48.027Z,100965.00
2019-04-11T05:12:18.433Z,100968.00
2019-04-11T05:14:49.686Z,100963.00
2019-04-11T05:17:19.370Z,100959.00
2019-04-11T05:19:48.855Z,100964.00
2019-04-11T05:22:19.038Z,100969.00
2019-04-11T05:24:48.577Z,100962.00
2019-04-11T05:27:18.070Z,100978.00
2019-04-11T05:29:47.881Z,100979.00
2019-04-11T05:32:17.324Z,100987.00
2019-04-11T05:34:46.804Z,100993.00
2019-04-11T05:37:16.238Z,100984.00
2019-04-11T05:39:45.681Z,100981.00
2019-04-11T05:42:17.719Z,100984.00
2019-04-11T05:44:47.090Z,100986.00
2019-04-11T05:47:18.890Z,100985.00
2019-04-11T05:49:54.656Z,100993.00
2019-04-11T05:52:27.432Z,100989.00
2019-04-11T05:54:57.051Z,100987.00
2019-04-11T05:57:33.570Z,100981.00
2019-04-11T05:59:59.135Z,100989.00
2019-04-11T06:02:33.308Z,100988.00
2019-04-11T06:05:04.539Z,100981.00
2019-04-11T06:07:55.609Z,100985.00
2019-04-11T06:10:33.979Z,100985.00
2019-04-11T06:13:21.178Z,100990.00
2019-04-11T06:15:56.661Z,100988.00
2019-04-11T06:18:37.395Z,100993.00
2019-04-11T06:21:07.515Z,100999.00
2019-04-11T06:23:47.875Z,101005.00
2019-04-11T06:26:19.027Z,100990.00
2019-04-11T06:28:52.849Z,100991.00
2019-04-11T06:31:41.034Z,100996.00
2019-04-11T06:34:11.348Z,100988.00
2019-04-11T06:37:01.380Z,100999.00
2019-04-11T06:39:45.264Z,101006.00
2019-04-11T06:42:32.497Z,101011.00
2019-04-11T06:45:04.101Z,101015.00
2019-04-11T06:47:51.357Z,101006.00
2019-04-11T06:50:28.046Z,101007.00
2019-04-11T06:52:58.208Z,101017.00
2019-04-11T06:55:46.737Z,101014.00
2019-04-11T06:58:21.486Z,101021.00
2019-04-11T07:00:53.597Z,101016.00
2019-04-11T07:03:29.265Z,101006.00
2019-04-11T07:06:00.453Z,101010.00
2019-04-11T07:08:32.103Z,101021.00
2019-04-11T07:11:03.322Z,101019.00
2019-04-11T07:13:34.416Z,101012.00
2019-04-11T07:16:04.692Z,101012.00
2019-04-11T07:18:41.608Z,101018.00
2019-04-11T07:21:11.720Z,101016.00
2019-04-11T07:23:59.709Z,101026.00
2019-04-11T07:26:33.129Z,101029.00
2019-04-11T07:29:07.361Z,101031.00
2019-04-11T07:31:50.890Z,101035.00
2019-04-11T07:34:39.302Z,101024.00
2019-04-11T07:37:28.169Z,101033.00
2019-04-11T07:40:03.107Z,101042.00
2019-04-11T07:42:41.077Z,101031.00
2019-04-11T07:45:25.364Z,101044.00
2019-04-11T07:47:56.560Z,101042.00
2019-04-11T07:50:26.266Z,101038.00
2019-04-11T07:52:58.463Z,101044.00
2019-04-11T07:55:28.612Z,101037.00
2019-04-11T07:58:17.922Z,101036.00
2019-04-11T08:00:53.344Z,101035.00
2019-04-11T08:03:27.766Z,101031.00
2019-04-11T08:06:00.890Z,101025.00
2019-04-11T08:08:32.399Z,101025.00
2019-04-11T08:11:06.708Z,101038.00
2019-04-11T08:13:52.122Z,101037.00
2019-04-11T08:19:40.772Z,101042.00
2019-04-11T08:22:18.933Z,101032.00
2019-04-11T08:24:58.807Z,101038.00
2019-04-11T08:27:29.866Z,101024.00
2019-04-11T08:30:01.008Z,101034.00
2019-04-11T08:32:47.039Z,101036.00
2019-04-11T08:35:24.238Z,101045.00
2019-04-11T08:38:07.924Z,101043.00
2019-04-11T08:40:55.478Z,101039.00
2019-04-11T08:43:27.112Z,101039.00
2019-04-11T08:46:15.003Z,101039.00
2019-04-11T08:48:49.044Z,101035.00
2019-04-11T08:51:20.204Z,101034.00
2019-04-11T08:53:51.288Z,101037.00
2019-04-11T08:56:23.066Z,101042.00
2019-04-11T08:59:31.668Z,101042.00
2019-04-11T09:02:02.498Z,101044.00
2019-04-11T09:04:40.016Z,101040.00
2019-04-11T09:07:11.758Z,101044.00
2019-04-11T09:09:57.925Z,101047.00
2019-04-11T09:12:28.783Z,101046.00
2019-04-11T09:15:02.772Z,101045.00
2019-04-11T09:17:34.464Z,101042.00
2019-04-11T09:20:21.290Z,101049.00
2019-04-11T09:22:53.349Z,101044.00
2019-04-11T09:25:40.762Z,101049.00
2019-04-11T09:28:13.304Z,101033.00
2019-04-11T09:30:50.101Z,101039.00
2019-04-11T09:33:38.523Z,101043.00
2019-04-11T09:36:29.001Z,101044.00
2019-04-11T09:39:08.655Z,101054.00
2019-04-11T09:41:56.624Z,101039.00
2019-04-11T09:44:44.790Z,101043.00
2019-04-11T09:47:18.384Z,101044.00
2019-04-11T09:49:49.509Z,101041.00
2019-04-11T09:52:23.166Z,101053.00
2019-04-11T09:55:12.907Z,101049.00
2019-04-11T09:57:44.255Z,101041.00
2019-04-11T10:00:22.762Z,101043.00
2019-04-11T10:02:54.133Z,101047.00
2019-04-11T10:05:38.321Z,101042.00
2019-04-11T10:08:12.779Z,101048.00
2019-04-11T10:11:01.772Z,101045.00
2019-04-11T10:13:34.026Z,101037.00
2019-04-11T10:16:15.855Z,101049.00
2019-04-11T10:18:47.383Z,101052.00
2019-04-11T10:21:19.363Z,101045.00
2019-04-11T10:23:56.802Z,101044.00
2019-04-11T10:26:28.084Z,101039.00
2019-04-11T10:29:02.254Z,101038.00
2019-04-11T10:31:34.621Z,101043.00
2019-04-11T10:34:22.184Z,101037.00
2019-04-11T10:36:53.727Z,101042.00
2019-04-11T10:39:34.466Z,101039.00
2019-04-11T10:42:10.548Z,101049.00
2019-04-11T10:44:42.317Z,101041.00
2019-04-11T10:47:14.498Z,101049.00
2019-04-11T10:50:01.532Z,101041.00
2019-04-11T10:52:32.626Z,101048.00
2019-04-11T10:55:06.430Z,101042.00
2019-04-11T10:57:46.718Z,101048.00
2019-04-11T11:00:18.926Z,101052.00
2019-04-11T11:03:09.581Z,101054.00
2019-04-11T11:05:40.731Z,101049.00
2019-04-11T11:08:17.453Z,101044.00
2019-04-11T11:10:47.965Z,101061.00
2019-04-11T11:13:21.948Z,101051.00
2019-04-11T11:15:53.178Z,101046.00
2019-04-11T11:19:03.220Z,101051.00
2019-04-11T11:20:58.841Z,101042.00
2019-04-11T11:23:44.978Z,101049.00
2019-04-11T11:26:19.883Z,101047.00
2019-04-11T11:28:48.826Z,101035.00
2019-04-11T11:31:38.563Z,101057.00
2019-04-11T11:34:14.620Z,101054.00
2019-04-11T11:36:43.784Z,101043.00
2019-04-11T11:39:15.259Z,101045.00
2019-04-11T11:42:02.479Z,101049.00
2019-04-11T11:44:37.121Z,101050.00
2019-04-11T11:47:14.008Z,101055.00
2019-04-11T11:49:51.900Z,101045.00
2019-04-11T11:52:17.182Z,101054.00
2019-04-11T11:54:48.187Z,101053.00
2019-04-11T11:57:20.386Z,101064.00
2019-04-11T11:59:52.369Z,101055.00
2019-04-11T12:02:26.456Z,101058.00
2019-04-11T12:05:07.796Z,101060.00
2019-04-11T12:07:39.390Z,101058.00
2019-04-11T12:10:26.110Z,101057.00
2019-04-11T12:13:10.887Z,101051.00
2019-04-11T12:15:39.325Z,101047.00
2019-04-11T12:18:18.486Z,101048.00
2019-04-11T12:20:55.568Z,101062.00
2019-04-11T12:23:25.907Z,101060.00
2019-04-11T12:25:55.749Z,101057.00
2019-04-11T12:28:33.448Z,101053.00
2019-04-11T12:31:09.288Z,101055.00
2019-04-11T12:33:46.242Z,101060.00
2019-04-11T12:36:17.349Z,101052.00
2019-04-11T12:38:48.445Z,101046.00
2019-04-11T12:41:20.194Z,101054.00
2019-04-11T12:44:06.509Z,101062.00
2019-04-11T12:46:43.179Z,101062.00
2019-04-11T12:49:26.068Z,101054.00
2019-04-11T12:52:13.818Z,101048.00
2019-04-11T12:54:47.724Z,101042.00
2019-04-11T12:57:35.172Z,101041.00
2019-04-11T13:00:12.769Z,101047.00
2019-04-11T13:03:02.368Z,101046.00
2019-04-11T13:05:52.620Z,101043.00
2019-04-11T13:08:40.158Z,101036.00
2019-04-11T13:11:11.589Z,101044.00
2019-04-11T13:13:58.772Z,101045.00
2019-04-11T13:16:28.581Z,101046.00
2019-04-11T13:18:59.666Z,101049.00
2019-04-11T13:21:30.772Z,101053.00
2019-04-11T13:24:18.106Z,101045.00
2019-04-11T13:27:05.883Z,101051.00
2019-04-11T13:29:45.928Z,101054.00
2019-04-11T13:32:20.056Z,101057.00
2019-04-11T13:34:53.685Z,101039.00
2019-04-11T13:37:24.785Z,101051.00
2019-04-11T13:40:01.733Z,101056.00
2019-04-11T13:42:48.880Z,101055.00
2019-04-11T13:45:18.993Z,101048.00
2019-04-11T13:48:05.997Z,101057.00
2019-04-11T13:50:36.322Z,101046.00
2019-04-11T13:53:22.838Z,101049.00
2019-04-11T13:55:52.304Z,101055.00
2019-04-11T13:58:32.117Z,101049.00
2019-04-11T14:01:01.734Z,101047.00
2019-04-11T14:03:48.928Z,101049.00
2019-04-11T14:06:20.455Z,101053.00
2019-04-11T14:09:07.707Z,101051.00
2019-04-11T14:11:38.861Z,101054.00
2019-04-11T14:14:12.962Z,101052.00
2019-04-11T14:16:44.045Z,101057.00
2019-04-11T14:19:26.961Z,101053.00
2019-04-11T14:21:56.672Z,101047.00
2019-04-11T14:24:36.597Z,101051.00
2019-04-11T14:27:19.682Z,101043.00
2019-04-11T14:29:56.744Z,101052.00
2019-04-11T14:32:27.835Z,101056.00
2019-04-11T14:35:15.377Z,101050.00
2019-04-11T14:37:46.454Z,101059.00
2019-04-11T14:40:27.091Z,101058.00
2019-04-11T14:43:00.705Z,101057.00
2019-04-11T14:45:33.732Z,101049.00
2019-04-11T14:48:20.780Z,101049.00
2019-04-11T14:50:57.773Z,101054.00
2019-04-11T14:53:37.978Z,101053.00
2019-04-11T14:56:09.055Z,101057.00
2019-04-11T14:58:56.193Z,101058.00
2019-04-11T15:01:28.177Z,101062.00
2019-04-11T15:04:02.736Z,101059.00
2019-04-11T15:06:39.926Z,101063.00
2019-04-11T15:09:11.371Z,101057.00
2019-04-11T15:11:51.553Z,101056.00
2019-04-11T15:14:32.423Z,101061.00
2019-04-11T15:17:09.463Z,101059.00
2019-04-11T15:19:40.581Z,101062.00
2019-04-11T15:22:28.064Z,101063.00
2019-04-11T15:25:15.289Z,101061.00
2019-04-11T15:27:55.045Z,101068.00
2019-04-11T15:30:43.384Z,101060.00
2019-04-11T15:33:29.363Z,101055.00
2019-04-11T15:36:00.538Z,101055.00
2019-04-11T15:38:37.307Z,101061.00
2019-04-11T15:41:08.550Z,101063.00
2019-04-11T15:43:42.078Z,101060.00
2019-04-11T15:46:14.696Z,101069.00
2019-04-11T15:48:47.990Z,101069.00
2019-04-11T15:51:19.070Z,101068.00
2019-04-11T15:53:51.695Z,101075.00
2019-04-11T15:56:41.708Z,101078.00
2019-04-11T15:59:13.138Z,101071.00
2019-04-11T16:01:50.693Z,101076.00
2019-04-11T16:04:30.578Z,101073.00
2019-04-11T16:07:11.779Z,101074.00
2019-04-11T16:09:46.587Z,101080.00
2019-04-11T16:12:35.950Z,101078.00
2019-04-11T16:15:08.775Z,101084.00
2019-04-11T16:17:54.777Z,101081.00
2019-04-11T16:20:24.903Z,101079.00
2019-04-11T16:22:56.086Z,101076.00
2019-04-11T16:25:28.943Z,101081.00
2019-04-11T16:28:14.491Z,101082.00
2019-04-11T16:30:45.611Z,101079.00
2019-04-11T16:33:16.691Z,101080.00
2019-04-11T16:35:47.790Z,101090.00
2019-04-11T16:38:19.576Z,101085.00
2019-04-11T16:41:07.457Z,101082.00
2019-04-11T16:43:38.560Z,101081.00
2019-04-11T16:46:18.398Z,101088.00
2019-04-11T16:48:47.897Z,101094.00
2019-04-11T16:51:17.322Z,101101.00
2019-04-11T16:53:46.773Z,101105.00
2019-04-11T16:56:16.248Z,101102.00
2019-04-11T16:58:49.312Z,101107.00
2019-04-11T17:01:16.860Z,101100.00
2019-04-11T17:03:46.342Z,101117.00
2019-04-11T17:06:20.389Z,101095.00
2019-04-11T17:08:51.744Z,101113.00
2019-04-11T17:11:21.330Z,101103.00
2019-04-11T17:13:50.760Z,101104.00
2019-04-11T17:16:20.393Z,101111.00
2019-04-11T17:18:49.842Z,101110.00
2019-04-11T17:21:19.267Z,101114.00
2019-04-11T17:23:51.684Z,101111.00
2019-04-11T17:26:23.189Z,101110.00
2019-04-11T17:28:54.530Z,101116.00
2019-04-11T17:31:25.940Z,101115.00
2019-04-11T17:33:56.620Z,101119.00
2019-04-11T17:36:26.291Z,101120.00
2019-04-11T17:38:55.756Z,101123.00
2019-04-11T17:41:25.438Z,101134.00
2019-04-11T17:43:54.883Z,101131.00
2019-04-11T17:46:26.722Z,101129.00
2019-04-11T17:48:55.542Z,101139.00
2019-04-11T17:51:26.549Z,101141.00
2019-04-11T17:53:56.329Z,101138.00
2019-04-11T17:56:25.763Z,101148.00
2019-04-11T17:58:57.623Z,101155.00
2019-04-11T18:01:26.498Z,101164.00
2019-04-11T18:03:55.944Z,101167.00
2019-04-11T18:06:25.391Z,101169.00
2019-04-11T18:08:55.167Z,101179.00
2019-04-11T18:11:26.212Z,101169.00
2019-04-11T18:13:55.790Z,101175.00
2019-04-11T18:16:25.264Z,101177.00
2019-04-11T18:18:54.730Z,101183.00
2019-04-11T18:21:24.308Z,101184.00
2019-04-11T18:23:53.783Z,101192.00
2019-04-11T18:26:23.788Z,101190.00
2019-04-11T18:28:53.229Z,101200.00
2019-04-11T18:31:24.760Z,101201.00
2019-04-11T18:33:53.873Z,101203.00
2019-04-11T18:36:23.300Z,101211.00
2019-04-11T18:38:52.777Z,101208.00
2019-04-11T18:41:22.895Z,101211.00
2019-04-11T18:43:52.328Z,101214.00
2019-04-11T18:46:22.262Z,101220.00
2019-04-11T18:48:54.353Z,101216.00
2019-04-11T18:51:23.250Z,101212.00
2019-04-11T18:53:53.310Z,101212.00
2019-04-11T18:56:22.748Z,101216.00
2019-04-11T18:58:52.187Z,101215.00
2019-04-11T19:01:21.741Z,101213.00
2019-04-11T19:03:51.248Z,101217.00
2019-04-11T19:06:27.724Z,101223.00
2019-04-11T19:08:52.543Z,101224.00
2019-04-11T19:11:22.361Z,101220.00
2019-04-11T19:13:52.075Z,101211.00
2019-04-11T19:16:21.863Z,101213.00
2019-04-11T19:18:51.305Z,101216.00
2019-04-11T19:21:21.300Z,101211.00
2019-04-11T19:23:50.938Z,101210.00
2019-04-11T19:26:22.748Z,101211.00
2019-04-11T19:28:54.941Z,101217.00
2019-04-11T19:31:27.128Z,101212.00
2019-04-11T19:33:53.892Z,101213.00
2019-04-11T19:36:23.349Z,101218.00
2019-04-11T19:38:52.824Z,101215.00
2019-04-11T19:41:22.256Z,101224.00
2019-04-11T19:43:51.705Z,101215.00
2019-04-11T19:46:21.172Z,101216.00
2019-04-11T19:48:50.626Z,101219.00
2019-04-11T19:51:20.059Z,101219.00
2019-04-11T19:53:49.543Z,101223.00
2019-04-11T19:56:29.609Z,101215.00
2019-04-11T19:58:59.075Z,101215.00
2019-04-11T20:01:28.524Z,101208.00
2019-04-11T20:03:57.966Z,101213.00
2019-04-11T20:06:27.428Z,101212.00
2019-04-11T20:08:56.869Z,101221.00
2019-04-11T20:11:26.313Z,101226.00
2019-04-11T20:13:55.806Z,101217.00
2019-04-11T20:16:25.248Z,101216.00
2019-04-11T20:18:57.449Z,101227.00
2019-04-11T20:21:25.957Z,101233.00
2019-04-11T20:23:55.387Z,101224.00
2019-04-11T20:26:24.841Z,101235.00
2019-04-11T20:28:54.317Z,101232.00
2019-04-11T20:31:23.762Z,101232.00
2019-04-11T20:33:53.203Z,101225.00
2019-04-11T20:36:32.909Z,101236.00
2019-04-11T20:38:54.036Z,101234.00
2019-04-11T20:41:23.805Z,101239.00
2019-04-11T20:43:56.917Z,101232.00
2019-04-11T20:46:28.821Z,101231.00
2019-04-11T20:48:55.753Z,101242.00
2019-04-11T20:51:25.212Z,101235.00
2019-04-11T20:53:54.665Z,101243.00
2019-04-11T20:56:24.696Z,101238.00
2019-04-11T20:58:54.255Z,101236.00
2019-04-11T21:01:26.011Z,101237.00
2019-04-11T21:03:54.904Z,101238.00
2019-04-11T21:06:24.386Z,101230.00
2019-04-11T21:08:53.875Z,101228.00
2019-04-11T21:11:23.358Z,101234.00
2019-04-11T21:13:52.797Z,101232.00
2019-04-11T21:16:22.245Z,101236.00
2019-04-11T21:18:54.485Z,101233.00
2019-04-11T21:21:25.211Z,101230.00
2019-04-11T21:23:54.099Z,101236.00
2019-04-11T21:26:23.548Z,101228.00
2019-04-11T21:28:52.983Z,101227.00
2019-04-11T21:31:22.447Z,101227.00
2019-04-11T21:33:51.887Z,101239.00
2019-04-11T21:36:21.323Z,101232.00
2019-04-11T21:38:50.800Z,101230.00
2019-04-11T21:41:20.239Z,101226.00
2019-04-11T21:43:49.685Z,101234.00
2019-04-11T21:46:19.146Z,101232.00
2019-04-11T21:48:48.579Z,101227.00
2019-04-11T21:51:18.013Z,101228.00
2019-04-11T21:53:47.558Z,101226.00
2019-04-11T21:56:18.649Z,101237.00
2019-04-11T21:58:50.145Z,101237.00
2019-04-11T22:01:21.991Z,101228.00
2019-04-11T22:03:57.146Z,101232.00
2019-04-11T22:06:23.907Z,101233.00
2019-04-11T22:08:53.394Z,101239.00
2019-04-11T22:11:22.846Z,101248.00
2019-04-11T22:13:52.301Z,101244.00
2019-04-11T22:16:21.775Z,101254.00
2019-04-11T22:18:51.217Z,101247.00
2019-04-11T22:21:20.650Z,101240.00
2019-04-11T22:23:50.119Z,101239.00
2019-04-11T22:26:19.567Z,101237.00
2019-04-11T22:28:49.013Z,101239.00
2019-04-11T22:31:18.475Z,101234.00
2019-04-11T22:33:52.326Z,101229.00
2019-04-11T22:36:41.130Z,101232.00
2019-04-11T22:39:11.451Z,101234.00
2019-04-11T22:41:40.891Z,101236.00
2019-04-11T22:44:10.367Z,101240.00
2019-04-11T22:46:39.807Z,101237.00
2019-04-11T22:49:09.506Z,101238.00
2019-04-11T22:51:42.664Z,101246.00
2019-04-11T22:54:12.936Z,101247.00
2019-04-11T22:56:41.769Z,101238.00
2019-04-11T22:59:14.002Z,101237.00
2019-04-11T23:01:46.724Z,101236.00
2019-04-11T23:04:16.826Z,101236.00
2019-04-11T23:06:47.263Z,101239.00
2019-04-11T23:09:19.479Z,101242.00
2019-04-11T23:11:47.851Z,101243.00
2019-04-11T23:14:17.328Z,101237.00
2019-04-11T23:16:46.776Z,101233.00
2019-04-11T23:19:16.218Z,101236.00
2019-04-11T23:21:45.740Z,101233.00
2019-04-11T23:24:15.174Z,101232.00
2019-04-11T23:26:44.694Z,101235.00
2019-04-11T23:29:16.186Z,101239.00
2019-04-11T23:31:45.320Z,101238.00
2019-04-11T23:34:14.793Z,101244.00
2019-04-11T23:36:44.248Z,101235.00
2019-04-11T23:39:13.697Z,101242.00
2019-04-11T23:41:43.213Z,101239.00
2019-04-11T23:44:12.690Z,101244.00
2019-04-11T23:46:42.121Z,101246.00
2019-04-11T23:49:11.577Z,101248.00
2019-04-11T23:51:41.066Z,101250.00
2019-04-11T23:54:10.507Z,101249.00
2019-04-11T23:56:39.954Z,101245.00
2019-04-11T23:59:09.455Z,101239.00
